ENKB/KSU METAR and TAF weather

Enter ICAO airport designator
Station Type Date Time Source
ENKB METAR 2018/07/21 22:50 UTC NOAA

ENKB 212250Z AUTO 00000KT 9999 NCD 13/07 Q1008 RMK WIND 745FT 00000KT


Station Type Date Time Source
ENKB Decoded METAR 2018/07/21 22:50 UTC NOAA

Kristiansund / Kvernberget, Norway (ENKB) 63-07N 007-50E 62M
Jul 21, 2018 - 06:50 PM EDT / 2018.07.21 2250 UTC
Wind: Calm:0
Visibility: greater than 7 mile(s):0
Temperature: 55 F (13 C)
Dew Point: 44 F (7 C)
Relative Humidity: 66%
Pressure (altimeter): 29.77 in. Hg (1008 hPa)
ob: ENKB 212250Z AUTO 00000KT 9999 NCD 13/07 Q1008 RMK WIND 745FT 00000KT
cycle: 23

Station Type Date Time Source
ENKB TAF 2010/02/05 07:50 UTC NOAA

METAR ENKB 050750Z 15011KT 110V200 9999 SCT055 BKN070 03/M05 Q1007


Example: see airport list